Time;durP1;ratioP1;P1;durP2;ratioP2;P2;SDS_P1;SDS_P2;PMS_P1;PMS_P2;Temp;Humidity;BMP_temperature;BMP_pressure;BME280_temperature;BME280_humidity;BME280_pressure;Samples;Min_cycle;Max_cycle;Signal;HPM_P1;HPM_P2
2022/08/14 00:00:45;;;;;;;4.38;3.03;;;14.30;99.90;;;;;;5035518;28;20029;-77
2022/08/14 00:03:22;;;;;;;3.83;2.97;;;14.40;99.90;;;;;;5034169;28;20080;-77
2022/08/14 00:05:48;;;;;;;3.88;3.00;;;14.40;99.90;;;;;;5034161;28;20022;-77
2022/08/14 00:08:14;;;;;;;3.33;2.70;;;14.30;99.90;;;;;;5033896;28;20363;-77
2022/08/14 00:10:40;;;;;;;4.82;3.03;;;14.40;99.90;;;;;;5035452;28;20033;-77
2022/08/14 00:13:07;;;;;;;3.90;2.90;;;14.30;99.90;;;;;;5034311;28;20034;-76
2022/08/14 00:15:37;;;;;;;3.92;3.05;;;14.40;99.90;;;;;;5033881;28;20052;-77
2022/08/14 00:18:05;;;;;;;4.50;2.63;;;14.30;99.90;;;;;;5035814;28;20505;-77
2022/08/14 00:20:34;;;;;;;3.05;2.72;;;14.20;99.90;;;;;;5034063;28;20037;-77
2022/08/14 00:23:00;;;;;;;5.75;3.13;;;14.10;99.90;;;;;;5033815;28;20021;-77
2022/08/14 00:25:27;;;;;;;3.67;3.00;;;14.10;99.90;;;;;;5033765;28;20068;-76
2022/08/14 00:27:53;;;;;;;3.65;2.92;;;14.00;99.90;;;;;;5033726;28;20037;-77
2022/08/14 00:30:20;;;;;;;3.95;3.00;;;13.80;99.90;;;;;;5034875;28;20036;-76
2022/08/14 00:32:45;;;;;;;4.30;2.95;;;13.80;99.90;;;;;;5034917;28;20029;-76
2022/08/14 00:35:12;;;;;;;3.83;2.78;;;13.80;99.90;;;;;;5033444;28;20104;-77
2022/08/14 00:37:43;;;;;;;4.32;3.28;;;13.80;99.90;;;;;;5033528;28;20604;-77
2022/08/14 00:40:10;;;;;;;;;;;13.80;99.90;;;;;;5034100;28;20033;-77
2022/08/14 00:42:36;;;;;;;5.50;3.00;;;13.70;99.90;;;;;;5050021;28;19916;-77
2022/08/14 00:45:02;;;;;;;4.20;2.97;;;13.70;99.90;;;;;;5033599;28;20018;-76
2022/08/14 00:47:28;;;;;;;4.45;3.25;;;13.70;99.90;;;;;;5033343;28;20025;-77
2022/08/14 00:49:57;;;;;;;3.72;3.15;;;13.70;99.90;;;;;;5033517;28;20430;-77
2022/08/14 00:52:24;;;;;;;3.20;2.80;;;13.70;99.90;;;;;;5033265;28;20363;-77
2022/08/14 00:54:53;;;;;;;4.60;3.35;;;13.70;99.90;;;;;;5033128;28;20025;-77
2022/08/14 00:57:24;;;;;;;5.32;3.38;;;13.70;99.90;;;;;;5034290;28;20029;-77
2022/08/14 00:59:50;;;;;;;4.78;3.13;;;13.70;99.90;;;;;;5034302;28;20086;-76
2022/08/14 01:02:23;;;;;;;3.70;2.95;;;13.70;99.90;;;;;;5034776;28;20354;-76
2022/08/14 01:04:51;;;;;;;3.75;3.00;;;13.70;99.90;;;;;;5033091;28;20032;-76
2022/08/14 01:07:21;;;;;;;3.83;3.10;;;13.60;99.90;;;;;;5034027;28;20445;-77
2022/08/14 01:09:54;;;;;;;4.28;3.17;;;13.60;99.90;;;;;;5032609;28;20040;-77
2022/08/14 01:12:21;;;;;;;5.90;3.40;;;13.60;99.90;;;;;;5032356;28;20044;-77
2022/08/14 01:14:51;;;;;;;3.58;3.00;;;13.60;99.90;;;;;;5032675;28;20025;-77
2022/08/14 01:17:18;;;;;;;5.18;3.10;;;13.50;99.90;;;;;;5033791;28;20021;-77
2022/08/14 01:22:28;;;;;;;4.30;3.45;;;13.50;99.90;;;;;;5034132;28;20087;-77
2022/08/14 01:24:54;;;;;;;3.95;3.30;;;13.50;99.90;;;;;;5033345;28;20477;-77
2022/08/14 01:27:22;;;;;;;4.38;3.28;;;13.40;99.90;;;;;;5033470;28;20021;-76
2022/08/14 01:29:50;;;;;;;4.88;3.10;;;13.40;99.90;;;;;;5032288;28;20030;-77
2022/08/14 01:32:20;;;;;;;4.80;3.20;;;13.30;99.90;;;;;;5032366;28;20104;-76
2022/08/14 01:34:53;;;;;;;4.05;3.15;;;13.30;99.90;;;;;;5032251;28;20041;-76
2022/08/14 01:37:24;;;;;;;4.50;3.20;;;13.30;99.90;;;;;;5030334;28;20029;-76
2022/08/14 01:39:51;;;;;;;4.75;3.05;;;13.30;99.90;;;;;;5030306;28;20512;-76
2022/08/14 01:42:17;;;;;;;4.03;3.30;;;13.30;99.90;;;;;;5031754;28;20033;-76
2022/08/14 01:44:43;;;;;;;4.53;3.42;;;13.20;99.90;;;;;;5030750;28;20033;-76
2022/08/14 01:47:12;;;;;;;4.93;3.42;;;13.10;99.90;;;;;;5033265;28;20030;-77
2022/08/14 01:49:41;;;;;;;5.40;3.40;;;13.00;99.90;;;;;;5033786;28;20018;-77
2022/08/14 01:52:07;;;;;;;4.15;3.40;;;13.00;99.90;;;;;;5032500;28;20083;-78
2022/08/14 01:54:35;;;;;;;5.38;3.10;;;13.00;99.90;;;;;;5032338;28;20022;-78
2022/08/14 01:57:01;;;;;;;4.32;3.40;;;12.90;99.90;;;;;;5032042;28;20055;-77
2022/08/14 01:59:33;;;;;;;5.78;3.33;;;12.90;99.90;;;;;;5032217;28;20445;-78
2022/08/14 02:02:02;;;;;;;3.95;2.80;;;12.90;99.90;;;;;;5033656;28;20041;-77
2022/08/14 02:04:34;;;;;;;4.68;3.15;;;12.90;99.90;;;;;;5033931;28;20052;-77
2022/08/14 02:07:01;;;;;;;4.53;3.22;;;12.80;99.90;;;;;;5032364;28;20075;-78
2022/08/14 02:09:33;;;;;;;4.32;3.00;;;12.90;99.90;;;;;;5033265;28;20029;-77
2022/08/14 02:12:01;;;;;;;4.03;3.08;;;12.90;99.90;;;;;;5031975;28;20055;-76
2022/08/14 02:14:28;;;;;;;3.83;3.20;;;12.80;99.90;;;;;;5032204;28;20038;-76
2022/08/14 02:16:56;;;;;;;4.47;3.42;;;12.70;99.90;;;;;;5031962;28;20436;-77
2022/08/14 02:19:24;;;;;;;3.70;3.30;;;12.70;99.90;;;;;;5031937;28;20079;-77
2022/08/14 02:21:55;;;;;;;5.78;3.47;;;12.70;99.90;;;;;;5032415;28;20049;-76
2022/08/14 02:24:23;;;;;;;4.85;3.38;;;12.70;99.90;;;;;;5033568;28;20065;-77
2022/08/14 02:26:50;;;;;;;4.25;3.17;;;12.60;99.90;;;;;;5033179;28;20034;-77
2022/08/14 02:29:22;;;;;;;3.92;3.50;;;12.60;99.90;;;;;;5033174;28;20033;-77
2022/08/14 02:31:52;;;;;;;8.23;3.45;;;12.60;99.90;;;;;;5031831;28;20030;-76
2022/08/14 02:34:26;;;;;;;4.60;3.50;;;12.60;99.90;;;;;;5037213;28;20095;-77
2022/08/14 02:36:53;;;;;;;4.50;3.50;;;12.60;99.90;;;;;;5037032;28;20029;-77
2022/08/14 02:39:19;;;;;;;4.25;3.22;;;12.50;99.90;;;;;;5035853;28;20393;-77
2022/08/14 02:41:51;;;;;;;5.75;3.22;;;12.50;99.90;;;;;;5036941;28;20168;-76
2022/08/14 02:44:21;;;;;;;4.10;3.60;;;12.40;99.90;;;;;;5035735;28;20501;-77
2022/08/14 02:46:49;;;;;;;5.55;3.40;;;12.40;99.90;;;;;;5037234;28;20057;-77
2022/08/14 02:49:15;;;;;;;7.25;3.70;;;12.40;99.90;;;;;;5035518;28;20099;-78
2022/08/14 02:51:41;;;;;;;4.15;3.17;;;12.40;99.90;;;;;;5035460;28;20396;-76
2022/08/14 02:54:08;;;;;;;6.25;3.53;;;12.40;99.90;;;;;;5036637;28;20025;-76
2022/08/14 02:56:37;;;;;;;3.50;3.00;;;12.40;99.90;;;;;;5035375;28;20033;-77
2022/08/14 02:59:05;;;;;;;4.68;3.35;;;12.30;99.90;;;;;;5036692;28;20017;-77
2022/08/14 03:01:32;;;;;;;4.70;3.30;;;12.30;99.90;;;;;;5035322;28;20022;-76
2022/08/14 03:03:58;;;;;;;5.05;3.70;;;12.30;99.90;;;;;;5036550;28;20026;-77
2022/08/14 03:06:24;;;;;;;6.82;3.72;;;12.20;99.90;;;;;;5035262;28;20099;-77
2022/08/14 03:08:53;;;;;;;5.03;3.40;;;12.10;99.90;;;;;;5035257;28;20029;-77
2022/08/14 03:11:20;;;;;;;5.20;3.38;;;12.20;99.90;;;;;;5035104;28;20510;-76
2022/08/14 03:13:50;;;;;;;5.32;3.58;;;12.10;99.90;;;;;;5036412;28;20025;-77
2022/08/14 03:16:19;;;;;;;5.18;3.40;;;12.10;99.90;;;;;;5035032;28;20075;-77
2022/08/14 03:18:47;;;;;;;6.68;3.75;;;12.10;99.90;;;;;;5036304;28;20032;-77
2022/08/14 03:21:15;;;;;;;5.80;3.88;;;12.10;99.90;;;;;;5034972;28;20044;-76
2022/08/14 03:23:44;;;;;;;6.18;4.38;;;12.10;99.90;;;;;;5036201;28;20105;-77
2022/08/14 03:26:12;;;;;;;5.47;3.90;;;12.10;99.90;;;;;;5036191;28;20075;-77
2022/08/14 03:28:41;;;;;;;6.72;3.70;;;12.10;99.90;;;;;;5036354;28;20104;-77
2022/08/14 03:31:08;;;;;;;7.70;4.35;;;12.00;99.90;;;;;;5035999;28;20393;-76
2022/08/14 03:33:39;;;;;;;6.40;4.28;;;12.10;99.90;;;;;;5035999;28;20037;-77
2022/08/14 03:36:14;;;;;;;6.05;4.13;;;12.00;99.90;;;;;;5034662;28;20121;-77
2022/08/14 03:38:43;;;;;;;6.80;3.83;;;12.00;99.90;;;;;;5035938;28;20382;-77
2022/08/14 03:41:13;;;;;;;5.78;4.00;;;12.00;99.90;;;;;;5034773;28;20083;-76
2022/08/14 03:43:51;;;;;;;4.97;3.30;;;11.90;99.90;;;;;;5035572;28;20022;-76
2022/08/14 03:46:17;;;;;;;5.45;3.67;;;11.90;99.90;;;;;;5036111;28;20049;-76
2022/08/14 03:48:44;;;;;;;5.45;3.80;;;11.90;99.90;;;;;;5034462;28;20025;-76
2022/08/14 03:51:12;;;;;;;4.57;3.65;;;11.90;99.90;;;;;;5036195;28;20029;-76
2022/08/14 03:53:40;;;;;;;6.72;3.55;;;11.90;99.90;;;;;;5034343;28;20512;-77
2022/08/14 03:56:12;;;;;;;7.53;3.88;;;11.90;99.90;;;;;;5034102;28;20128;-76
2022/08/14 03:58:46;;;;;;;4.50;3.20;;;11.90;99.90;;;;;;5035583;28;20076;-77
2022/08/14 04:01:14;;;;;;;4.15;3.08;;;11.90;99.90;;;;;;5035515;28;20014;-76
2022/08/14 04:03:40;;;;;;;3.75;3.20;;;11.80;99.90;;;;;;5034481;28;20026;-76
2022/08/14 04:06:10;;;;;;;5.00;3.47;;;11.80;99.90;;;;;;5035456;28;20029;-76
2022/08/14 04:08:37;;;;;;;4.10;3.30;;;11.80;99.90;;;;;;5035705;28;20100;-76
2022/08/14 04:11:04;;;;;;;5.55;3.63;;;11.70;99.90;;;;;;5034002;28;20025;-75
2022/08/14 04:13:31;;;;;;;5.88;3.45;;;11.70;99.90;;;;;;5033981;28;20029;-76
2022/08/14 04:15:57;;;;;;;4.78;3.28;;;11.60;99.90;;;;;;5035160;28;20049;-76
2022/08/14 04:18:23;;;;;;;5.03;3.50;;;11.60;99.90;;;;;;5035174;28;20532;-76
2022/08/14 04:20:49;;;;;;;5.30;3.08;;;11.50;99.90;;;;;;5033789;28;20053;-75
2022/08/14 04:23:15;;;;;;;7.57;3.65;;;11.50;99.90;;;;;;5033845;28;20025;-76
2022/08/14 04:25:41;;;;;;;5.43;3.47;;;11.50;99.90;;;;;;5035303;28;20377;-76
2022/08/14 04:28:10;;;;;;;4.85;3.35;;;11.50;99.90;;;;;;5033971;28;20394;-76
2022/08/14 04:30:38;;;;;;;4.00;2.95;;;11.40;99.90;;;;;;5033624;28;20087;-76
2022/08/14 04:33:05;;;;;;;6.55;3.78;;;11.40;99.90;;;;;;5034886;28;20021;-76
2022/08/14 04:35:31;;;;;;;4.50;3.63;;;11.40;99.90;;;;;;5033520;28;20363;-76
2022/08/14 04:43:38;;;;;;;4.55;3.30;;;11.40;99.90;;;;;;5035076;28;20063;-74
2022/08/14 04:46:23;;;;;;;4.03;3.10;;;11.40;99.90;;;;;;5033508;28;20040;-74
2022/08/14 04:48:50;;;;;;;5.60;3.53;;;11.40;99.90;;;;;;5033418;28;20025;-74
2022/08/14 04:51:20;;;;;;;5.20;4.00;;;11.40;99.90;;;;;;5033256;28;20029;-73
2022/08/14 04:53:48;;;;;;;4.57;3.87;;;11.30;99.90;;;;;;5035118;28;20040;-73
2022/08/14 04:56:22;;;;;;;4.45;3.40;;;11.30;99.90;;;;;;5033419;28;20046;-74
2022/08/14 04:58:57;;;;;;;3.97;3.13;;;11.30;99.90;;;;;;5034414;28;20018;-73
2022/08/14 05:01:25;;;;;;;4.55;3.50;;;11.30;99.90;;;;;;5034869;28;20079;-72
2022/08/14 05:03:53;;;;;;;4.70;3.30;;;11.30;99.90;;;;;;5034679;28;20028;-73
2022/08/14 05:06:20;;;;;;;4.63;3.53;;;11.20;99.90;;;;;;5033002;28;20033;-73
2022/08/14 05:08:46;;;;;;;4.65;3.42;;;11.20;99.90;;;;;;5032952;28;20048;-73
2022/08/14 05:11:12;;;;;;;4.72;3.58;;;11.20;99.90;;;;;;5034234;28;20494;-73
2022/08/14 05:13:38;;;;;;;5.05;3.55;;;11.20;99.90;;;;;;5032840;28;20041;-72
2022/08/14 05:16:06;;;;;;;3.95;3.40;;;11.20;99.90;;;;;;5032783;28;20559;-72
2022/08/14 05:18:36;;;;;;;8.18;4.00;;;11.20;99.90;;;;;;5034032;28;20021;-73
2022/08/14 05:21:07;;;;;;;5.68;3.95;;;11.30;99.90;;;;;;5032679;28;20496;-73
2022/08/14 05:23:37;;;;;;;4.38;3.55;;;11.30;99.90;;;;;;5032787;28;20032;-72
2022/08/14 05:26:04;;;;;;;4.90;3.90;;;11.40;99.90;;;;;;5032706;28;20025;-73
2022/08/14 05:28:34;;;;;;;5.10;4.03;;;11.40;99.90;;;;;;5033911;28;20021;-73
2022/08/14 05:31:05;;;;;;;5.25;4.07;;;11.40;99.90;;;;;;5033910;28;20120;-72
2022/08/14 05:33:33;;;;;;;6.40;4.90;;;11.40;99.90;;;;;;5034118;28;20021;-73
2022/08/14 05:36:00;;;;;;;5.13;4.18;;;11.40;99.90;;;;;;5033925;28;20104;-72
2022/08/14 05:38:35;;;;;;;6.07;4.53;;;11.50;99.90;;;;;;5033660;28;20366;-73
2022/08/14 05:41:04;;;;;;;6.15;4.93;;;11.50;99.90;;;;;;5032410;28;20017;-72
2022/08/14 05:43:30;;;;;;;6.47;5.00;;;11.60;99.90;;;;;;5032418;28;20386;-72
2022/08/14 05:45:57;;;;;;;5.93;4.70;;;11.70;99.90;;;;;;5032907;28;20026;-72
2022/08/14 05:48:23;;;;;;;6.40;4.30;;;11.70;99.90;;;;;;5032326;28;20025;-72
2022/08/14 05:50:50;;;;;;;6.55;4.57;;;11.80;99.90;;;;;;5032784;28;20485;-72
2022/08/14 05:53:16;;;;;;;6.63;4.75;;;11.80;99.90;;;;;;5033830;28;20025;-71
2022/08/14 05:55:41;;;;;;;5.88;4.65;;;11.90;99.90;;;;;;5033286;28;20040;-72
2022/08/14 05:58:08;;;;;;;5.90;4.68;;;12.00;99.90;;;;;;5033731;28;20036;-72
2022/08/14 06:00:39;;;;;;;6.97;5.50;;;12.10;99.90;;;;;;5032174;28;20065;-72
2022/08/14 06:03:15;;;;;;;7.00;4.63;;;12.20;99.90;;;;;;5032308;28;20022;-72
2022/08/14 06:05:42;;;;;;;5.60;4.50;;;12.20;99.90;;;;;;5032107;28;20040;-72
2022/08/14 06:08:32;;;;;;;6.60;5.32;;;12.30;99.90;;;;;;5033074;28;20030;-72
2022/08/14 06:11:04;;;;;;;8.52;5.78;;;12.40;99.90;;;;;;5033190;28;20025;-72
2022/08/14 06:13:36;;;;;;;7.13;5.50;;;12.40;99.90;;;;;;5031908;28;20021;-72
2022/08/14 06:16:01;;;;;;;7.63;5.25;;;12.50;99.90;;;;;;5031840;28;20493;-72
2022/08/14 06:18:27;;;;;;;7.05;4.50;;;12.60;99.90;;;;;;5048805;28;20049;-72
2022/08/14 06:20:53;;;;;;;6.55;5.40;;;12.60;99.90;;;;;;5033180;28;20021;-72
2022/08/14 06:23:19;;;;;;;8.73;5.55;;;12.70;99.90;;;;;;5031913;28;20022;-71
2022/08/14 06:25:45;;;;;;;7.85;5.78;;;12.80;99.90;;;;;;5033211;28;20080;-72
2022/08/14 06:28:21;;;;;;;9.60;6.15;;;12.90;99.90;;;;;;5031911;28;20441;-72
2022/08/14 06:30:47;;;;;;;8.18;6.43;;;13.00;99.90;;;;;;5033344;28;20385;-72
2022/08/14 06:33:14;;;;;;;9.73;6.93;;;13.10;99.90;;;;;;5033402;28;20036;-72
2022/08/14 06:35:40;;;;;;;8.82;6.25;;;13.20;99.90;;;;;;5031828;28;20120;-72
2022/08/14 06:38:06;;;;;;;7.43;5.63;;;13.30;99.90;;;;;;5032088;28;20112;-73
2022/08/14 06:40:34;;;;;;;8.60;6.80;;;13.40;99.90;;;;;;5033307;28;20030;-72
2022/08/14 06:43:08;;;;;;;10.30;8.35;;;13.50;99.90;;;;;;5033336;28;20049;-72
2022/08/14 06:45:35;;;;;;;9.73;8.60;;;13.60;99.90;;;;;;5031856;28;20429;-72
2022/08/14 06:48:02;;;;;;;11.13;9.15;;;13.70;99.90;;;;;;5033282;28;20029;-73
2022/08/14 06:50:30;;;;;;;13.00;8.52;;;13.80;99.90;;;;;;5032892;28;20396;-73
2022/08/14 06:52:57;;;;;;;12.32;9.45;;;13.90;99.90;;;;;;5032991;28;20052;-72
2022/08/14 06:55:22;;;;;;;9.77;7.32;;;14.10;99.90;;;;;;5031698;28;20576;-72
2022/08/14 06:57:50;;;;;;;8.50;7.15;;;14.20;99.90;;;;;;5031571;28;20112;-72
2022/08/14 07:00:33;;;;;;;6.82;5.90;;;14.30;99.90;;;;;;5031623;28;20048;-72
2022/08/14 07:05:47;;;;;;;7.15;6.22;;;14.50;99.90;;;;;;5033145;28;20036;-72
2022/08/14 07:08:17;;;;;;;11.05;6.82;;;14.60;99.90;;;;;;5031530;28;20026;-74
2022/08/14 07:10:52;;;;;;;8.18;7.05;;;14.80;99.90;;;;;;5031539;28;20050;-75
2022/08/14 07:13:18;;;;;;;7.38;6.10;;;14.90;99.90;;;;;;5031517;28;20074;-75
2022/08/14 07:15:49;;;;;;;9.80;6.80;;;15.00;99.90;;;;;;5032698;28;20104;-75
2022/08/14 07:18:20;;;;;;;10.20;6.63;;;15.20;99.90;;;;;;5031988;28;20041;-75
2022/08/14 07:20:45;;;;;;;7.20;6.13;;;15.40;99.90;;;;;;5034998;28;20063;-75
2022/08/14 07:23:11;;;;;;;6.95;5.90;;;15.50;99.90;;;;;;5036252;28;20421;-75
2022/08/14 07:25:39;;;;;;;7.70;5.85;;;15.60;99.90;;;;;;5034954;28;20022;-75
2022/08/14 07:28:16;;;;;;;7.18;5.57;;;15.80;99.90;;;;;;5034764;28;20029;-75
2022/08/14 07:30:42;;;;;;;7.80;5.70;;;15.90;99.90;;;;;;5034807;28;20064;-73
2022/08/14 07:33:10;;;;;;;7.03;5.00;;;16.10;99.90;;;;;;5034790;28;20041;-74
2022/08/14 07:35:38;;;;;;;6.13;4.88;;;16.30;99.90;;;;;;5035938;28;20063;-75
2022/08/14 07:38:05;;;;;;;7.93;5.32;;;16.50;99.90;;;;;;5034826;28;20385;-75
2022/08/14 07:40:33;;;;;;;6.40;4.97;;;16.60;99.90;;;;;;5036271;28;20053;-75
2022/08/14 07:42:59;;;;;;;7.13;4.40;;;16.80;99.90;;;;;;5035883;28;20028;-75
2022/08/14 07:45:25;;;;;;;6.18;3.80;;;16.90;99.90;;;;;;5035802;28;20068;-76
2022/08/14 07:47:51;;;;;;;5.15;4.28;;;17.10;99.90;;;;;;5034526;28;20049;-75
2022/08/14 07:50:19;;;;;;;6.13;4.45;;;17.20;99.90;;;;;;5034728;28;20037;-76
2022/08/14 07:52:46;;;;;;;5.22;4.43;;;17.30;99.90;;;;;;5035968;28;20028;-72
2022/08/14 07:55:15;;;;;;;5.43;4.20;;;17.50;99.90;;;;;;5034373;28;20027;-74
2022/08/14 07:57:42;;;;;;;5.93;4.38;;;17.70;99.90;;;;;;5034181;28;20481;-75
2022/08/14 08:00:14;;;;;;;5.05;3.17;;;17.90;99.90;;;;;;5034235;28;20030;-75
2022/08/14 08:02:42;;;;;;;5.15;3.70;;;18.10;99.00;;;;;;5035518;28;20104;-73
2022/08/14 08:05:09;;;;;;;5.50;4.10;;;18.30;98.90;;;;;;5035768;28;20037;-72
2022/08/14 08:07:37;;;;;;;5.95;4.22;;;18.40;98.10;;;;;;5034104;28;20488;-72
2022/08/14 08:10:30;;;;;;;6.13;4.78;;;18.60;97.90;;;;;;5035634;28;20034;-72
2022/08/14 08:13:01;;;;;;;5.60;4.18;;;18.70;97.30;;;;;;5035314;28;20105;-72
2022/08/14 08:15:31;;;;;;;6.55;4.28;;;18.80;97.00;;;;;;5033992;28;20030;-73
2022/08/14 08:17:59;;;;;;;5.35;4.07;;;19.00;96.50;;;;;;5035335;28;20030;-73
2022/08/14 08:20:26;;;;;;;4.80;3.47;;;19.20;95.70;;;;;;5034146;28;20381;-73
2022/08/14 08:22:57;;;;;;;4.20;3.20;;;19.30;94.90;;;;;;5034133;28;20064;-72
2022/08/14 08:25:28;;;;;;;4.70;3.67;;;19.40;94.50;;;;;;5035133;28;20030;-72
2022/08/14 08:27:56;;;;;;;6.65;3.33;;;19.50;93.70;;;;;;5035077;28;20049;-73
2022/08/14 08:30:22;;;;;;;4.13;3.25;;;19.60;93.50;;;;;;5034831;28;20037;-72
2022/08/14 08:32:50;;;;;;;3.95;2.90;;;19.80;93.40;;;;;;5033758;28;20378;-72
2022/08/14 08:35:20;;;;;;;7.28;3.10;;;20.00;93.40;;;;;;5034828;28;20017;-73
2022/08/14 08:37:47;;;;;;;4.03;3.22;;;20.10;92.50;;;;;;5033843;28;20420;-73
2022/08/14 08:40:41;;;;;;;6.82;3.10;;;20.20;91.70;;;;;;5034739;28;20034;-72
2022/08/14 08:43:15;;;;;;;3.53;2.58;;;20.40;91.30;;;;;;5034119;28;20038;-73
2022/08/14 08:45:41;;;;;;;5.70;3.13;;;20.50;91.20;;;;;;5035003;28;20021;-72
2022/08/14 08:48:07;;;;;;;3.58;2.70;;;20.70;91.20;;;;;;5034653;28;20036;-72
2022/08/14 08:50:38;;;;;;;3.40;2.63;;;20.80;90.80;;;;;;5033526;28;20084;-72
2022/08/14 08:53:05;;;;;;;;;;;20.80;90.50;;;;;;5035310;28;20026;-72
2022/08/14 08:55:38;;;;;;;5.10;2.85;;;20.90;90.90;;;;;;5034394;28;19905;-72
2022/08/14 08:58:06;;;;;;;3.85;2.58;;;20.90;90.10;;;;;;5034762;28;20029;-72
2022/08/14 09:00:34;;;;;;;3.83;2.47;;;21.10;90.10;;;;;;5034603;28;20033;-72
2022/08/14 09:03:11;;;;;;;3.15;2.30;;;21.20;88.80;;;;;;5034669;28;20026;-72
2022/08/14 09:05:51;;;;;;;5.15;2.55;;;21.40;85.60;;;;;;5034640;28;20037;-72
2022/08/14 09:08:24;;;;;;;3.05;2.30;;;21.50;84.80;;;;;;5034299;28;20034;-72
2022/08/14 09:10:50;;;;;;;4.70;2.67;;;21.60;86.30;;;;;;5034298;28;20022;-73
2022/08/14 09:13:18;;;;;;;3.95;2.10;;;21.70;84.80;;;;;;5032835;28;20124;-73
2022/08/14 09:15:47;;;;;;;3.83;2.25;;;21.80;85.10;;;;;;5034333;28;20049;-72
2022/08/14 09:18:18;;;;;;;3.45;2.60;;;21.90;83.70;;;;;;5034102;28;20470;-72
2022/08/14 09:20:46;;;;;;;4.90;2.58;;;22.10;82.90;;;;;;5033919;28;20032;-71
2022/08/14 09:23:13;;;;;;;4.22;3.10;;;22.10;83.60;;;;;;5034107;28;20022;-72
2022/08/14 09:25:41;;;;;;;3.80;2.75;;;22.30;83.90;;;;;;5033990;28;20075;-72
2022/08/14 09:28:07;;;;;;;3.42;2.50;;;22.40;84.70;;;;;;5032745;28;20029;-72
2022/08/14 09:30:37;;;;;;;6.13;2.38;;;22.50;82.20;;;;;;5032621;28;20024;-72
2022/08/14 09:33:10;;;;;;;3.40;2.47;;;22.60;82.40;;;;;;5033229;28;20018;-72
2022/08/14 09:35:48;;;;;;;5.40;2.40;;;22.70;82.30;;;;;;5033372;28;20028;-72
2022/08/14 09:38:42;;;;;;;5.93;2.70;;;22.80;82.00;;;;;;5032735;28;20033;-72
2022/08/14 09:41:45;;;;;;;3.33;2.50;;;22.90;80.80;;;;;;5033313;28;20030;-72
2022/08/14 09:45:00;;;;;;;3.38;2.40;;;23.10;83.00;;;;;;5033853;28;20100;-72
2022/08/14 09:47:48;;;;;;;3.63;2.40;;;23.20;80.20;;;;;;5032384;28;20486;-71
2022/08/14 09:50:23;;;;;;;3.15;2.22;;;23.40;80.10;;;;;;5032284;28;20033;-71
2022/08/14 09:52:51;;;;;;;4.93;2.60;;;23.50;79.90;;;;;;5033874;28;20022;-71
2022/08/14 09:55:18;;;;;;;4.50;2.22;;;23.60;79.70;;;;;;5033135;28;20062;-71
2022/08/14 09:57:45;;;;;;;5.38;2.50;;;23.70;80.30;;;;;;5032611;28;20040;-70
2022/08/14 10:00:13;;;;;;;3.58;2.53;;;23.90;80.90;;;;;;5032171;28;20026;-71
2022/08/14 10:02:50;;;;;;;4.78;2.45;;;24.00;80.20;;;;;;5032189;28;20029;-70
2022/08/14 10:05:28;;;;;;;6.40;2.20;;;24.10;79.80;;;;;;5033716;28;20014;-70
2022/08/14 10:07:53;;;;;;;5.25;2.38;;;24.30;78.00;;;;;;5032140;28;20025;-71
2022/08/14 10:10:31;;;;;;;3.53;2.15;;;24.50;75.60;;;;;;5031997;28;20025;-70
2022/08/14 10:12:58;;;;;;;3.45;2.03;;;24.60;72.30;;;;;;5033256;28;20029;-71
2022/08/14 10:15:27;;;;;;;2.78;1.77;;;24.70;71.50;;;;;;5031963;28;20116;-70
2022/08/14 10:18:10;;;;;;;2.50;1.67;;;24.80;72.30;;;;;;5033670;28;20021;-70
2022/08/14 10:20:40;;;;;;;;;;;24.90;67.20;;;;;;5032284;28;20021;-70
2022/08/14 10:23:09;;;;;;;;;;;25.00;65.90;;;;;;5032466;28;19955;-71
2022/08/14 10:25:43;;;;;;;;;;;25.10;64.40;;;;;;5033664;28;19905;-70
2022/08/14 10:28:09;;;;;;;;;;;25.30;61.20;;;;;;5033642;28;19905;-70
2022/08/14 10:30:36;;;;;;;;;;;25.40;58.20;;;;;;5033545;28;19948;-68
2022/08/14 10:33:02;;;;;;;;;;;25.50;60.20;;;;;;5033598;28;19986;-71
2022/08/14 10:35:37;;;;;;;;;;;25.60;59.30;;;;;;5032304;28;20361;-70
2022/08/14 10:38:03;;;;;;;;;;;25.70;61.40;;;;;;5033805;28;19995;-70
2022/08/14 10:40:29;;;;;;;;;;;25.90;60.00;;;;;;5032071;28;19995;-70
2022/08/14 10:42:55;;;;;;;;;;;26.10;59.00;;;;;;5034026;28;20268;-70
2022/08/14 10:45:29;;;;;;;;;;;26.20;57.30;;;;;;5032196;28;19984;-70
2022/08/14 10:47:55;;;;;;;;;;;26.40;53.70;;;;;;5033741;28;19905;-70
2022/08/14 10:50:28;;;;;;;;;;;26.50;53.50;;;;;;5048998;28;19996;-70
2022/08/14 10:52:55;;;;;;;;;;;26.50;52.40;;;;;;5032175;28;19905;-70
2022/08/14 10:55:22;;;;;;;;;;;26.60;52.90;;;;;;5052861;28;19920;-70
2022/08/14 10:57:56;;;;;;;;;;;26.60;50.60;;;;;;5035787;28;20300;-70
2022/08/14 11:00:25;;;;;;;;;;;26.70;52.80;;;;;;5052409;28;19905;-70
2022/08/14 11:03:13;;;;;;;;;;;26.70;53.00;;;;;;5037075;28;20000;-70
2022/08/14 11:05:40;;;;;;;;;;;26.90;55.50;;;;;;5052374;28;19931;-70
2022/08/14 11:08:06;;;;;;;;;;;27.00;52.20;;;;;;5037280;28;19912;-70
2022/08/14 11:10:41;;;;;;;;;;;27.10;52.50;;;;;;5037540;28;19905;-70
2022/08/14 11:13:08;;;;;;;;;;;27.10;51.10;;;;;;5035602;28;20291;-70
2022/08/14 11:15:34;;;;;;;;;;;27.20;51.30;;;;;;5052099;28;20411;-70
2022/08/14 11:17:59;;;;;;;;;;;27.20;49.50;;;;;;5036798;28;19905;-70
2022/08/14 11:20:27;;;;;;;;;;;27.30;51.10;;;;;;5036974;28;19905;-70
2022/08/14 11:22:54;;;;;;;;;;;27.40;48.60;;;;;;5052075;28;20369;-70
2022/08/14 11:25:22;;;;;;;;;;;27.30;49.40;;;;;;5052038;28;19912;-70
2022/08/14 11:27:49;;;;;;;;;;;27.50;50.60;;;;;;5035359;28;19927;-70
2022/08/14 11:30:19;;;;;;;;;;;27.60;51.00;;;;;;5052076;28;19905;-70
2022/08/14 11:32:47;;;;;;;;;;;27.80;48.60;;;;;;5052074;28;19905;-70
2022/08/14 11:35:18;;;;;;;;;;;27.90;49.80;;;;;;5035218;28;19912;-70
2022/08/14 11:37:54;;;;;;;;;;;28.10;51.70;;;;;;5037025;28;19916;-69
2022/08/14 11:40:22;;;;;;;;;;;28.20;52.10;;;;;;5036322;28;19947;-69
2022/08/14 11:42:48;;;;;;;;;;;28.30;51.70;;;;;;5036959;28;20402;-69
2022/08/14 11:45:14;;;;;;;;;;;28.50;48.60;;;;;;5051658;28;19905;-69
2022/08/14 11:47:40;;;;;;;;;;;28.60;50.70;;;;;;5036601;28;19904;-70
2022/08/14 11:50:17;;;;;;;;;;;28.70;50.30;;;;;;5051998;28;20380;-70
2022/08/14 11:52:43;;;;;;;;;;;28.90;47.60;;;;;;5035381;28;19931;-70
2022/08/14 11:55:11;;;;;;;;;;;28.90;49.40;;;;;;5035124;28;20010;-70
2022/08/14 11:57:38;;;;;;;;;;;29.00;47.60;;;;;;5034740;28;19940;-70
2022/08/14 12:00:18;;;;;;;;;;;29.00;45.80;;;;;;5033411;28;19945;-70
2022/08/14 12:02:54;;;;;;;;;;;29.10;46.20;;;;;;5033894;28;20011;-70
2022/08/14 12:05:29;;;;;;;;;;;29.20;47.10;;;;;;5028761;28;19948;-70
2022/08/14 12:07:56;;;;;;;;;;;29.30;48.20;;;;;;5034384;28;20356;-70
2022/08/14 12:10:22;;;;;;;;;;;29.40;46.70;;;;;;5027525;28;19909;-70
2022/08/14 12:12:51;;;;;;;;;;;29.40;47.80;;;;;;5031273;28;20365;-70
2022/08/14 12:15:26;;;;;;;;;;;29.50;45.30;;;;;;5034456;28;20381;-70
2022/08/14 12:17:52;;;;;;;;;;;29.50;45.90;;;;;;5035662;28;20337;-71
2022/08/14 12:20:27;;;;;;;;;;;29.60;44.90;;;;;;5037481;28;19916;-70
2022/08/14 12:22:53;;;;;;;;;;;29.70;44.30;;;;;;5032138;28;19924;-71
2022/08/14 12:25:20;;;;;;;;;;;29.80;46.90;;;;;;5032994;28;19905;-71
2022/08/14 12:27:50;;;;;;;;;;;29.90;46.00;;;;;;5033162;28;19927;-70
2022/08/14 12:30:33;;;;;;;;;;;29.90;45.90;;;;;;5017389;28;20312;-70
2022/08/14 12:33:01;;;;;;;;;;;30.00;44.90;;;;;;5012273;28;19906;-70
2022/08/14 12:35:39;;;;;;;;;;;29.90;46.20;;;;;;5040952;28;20365;-70
2022/08/14 12:38:05;;;;;;;;;;;30.00;45.00;;;;;;5031143;28;19963;-71
2022/08/14 12:40:31;;;;;;;;;;;30.10;45.00;;;;;;5033069;28;20357;-70
2022/08/14 12:43:01;;;;;;;;;;;30.20;43.80;;;;;;5033950;28;19925;-70
2022/08/14 12:45:35;;;;;;;;;;;30.30;43.80;;;;;;5034205;28;20311;-70
2022/08/14 12:48:02;;;;;;;;;;;30.30;42.60;;;;;;5035108;28;19905;-70
2022/08/14 12:50:35;;;;;;;;;;;30.30;44.10;;;;;;5033141;28;19904;-70
2022/08/14 12:53:01;;;;;;;;;;;30.50;43.90;;;;;;5034994;28;19992;-70
2022/08/14 12:55:26;;;;;;;;;;;30.70;43.70;;;;;;5033641;28;19948;-70
2022/08/14 12:57:53;;;;;;;;;;;30.90;44.10;;;;;;5035111;28;19909;-70
2022/08/14 13:00:24;;;;;;;;;;;31.00;43.80;;;;;;5033747;28;19905;-70
2022/08/14 13:02:51;;;;;;;;;;;31.10;42.90;;;;;;5034822;28;19905;-70
2022/08/14 13:05:21;;;;;;;;;;;31.20;41.00;;;;;;5032684;28;20420;-70
2022/08/14 13:07:48;;;;;;;;;;;31.30;42.90;;;;;;5034731;28;20015;-70
2022/08/14 13:10:14;;;;;;;;;;;31.40;37.90;;;;;;5033642;28;19905;-70
2022/08/14 13:12:40;;;;;;;;;;;31.40;40.80;;;;;;5034669;28;19996;-69
2022/08/14 13:15:07;;;;;;;;;;;31.40;42.00;;;;;;5034399;28;19905;-70
2022/08/14 13:17:37;;;;;;;;;;;31.40;40.30;;;;;;5031285;28;19913;-69
2022/08/14 13:20:03;;;;;;;;;;;31.40;39.80;;;;;;5034734;28;19930;-69
2022/08/14 13:22:29;;;;;;;;;;;31.30;40.30;;;;;;5033318;28;20320;-69
2022/08/14 13:24:55;;;;;;;;;;;31.20;40.40;;;;;;5035032;28;19905;-69
2022/08/14 13:27:22;;;;;;;;;;;31.30;41.50;;;;;;5032095;28;19912;-69
2022/08/14 13:29:49;;;;;;;;;;;31.30;43.90;;;;;;5034268;28;19916;-70